createdAt,value
2023-05-05T00:03:05.305Z,15.00
2023-05-05T00:07:03.250Z,21.60
2023-05-05T00:11:02.325Z,15.90
2023-05-05T00:15:00.249Z,24.20
2023-05-05T00:18:59.262Z,20.50
2023-05-05T00:22:57.185Z,19.30
2023-05-05T00:26:55.236Z,24.10
2023-05-05T00:30:54.203Z,26.30
2023-05-05T00:34:52.224Z,32.40
2023-05-05T00:38:50.190Z,27.70
2023-05-05T00:42:59.197Z,32.00
2023-05-05T00:46:58.187Z,30.80
2023-05-05T00:50:58.214Z,28.20
2023-05-05T00:54:56.187Z,31.60
2023-05-05T00:58:57.199Z,32.60
2023-05-05T01:02:55.324Z,27.90
2023-05-05T01:07:02.239Z,29.70
2023-05-05T01:11:07.150Z,26.80
2023-05-05T01:15:19.264Z,28.30
2023-05-05T01:19:52.136Z,26.80
2023-05-05T01:23:56.177Z,28.10
2023-05-05T01:28:03.232Z,23.40
2023-05-05T01:32:05.163Z,31.10
2023-05-05T01:36:08.142Z,32.00
2023-05-05T01:40:10.189Z,27.10
2023-05-05T01:44:10.130Z,33.30
2023-05-05T01:48:12.121Z,28.60
2023-05-05T01:52:11.106Z,26.70
2023-05-05T01:56:09.147Z,29.10
2023-05-05T02:00:08.342Z,30.60
2023-05-05T02:04:09.218Z,34.90
2023-05-05T02:08:11.092Z,32.70
2023-05-05T02:12:11.130Z,29.50
2023-05-05T02:16:10.127Z,29.50
2023-05-05T02:20:09.222Z,30.20
2023-05-05T02:24:07.081Z,24.90
2023-05-05T02:28:09.119Z,27.10
2023-05-05T02:32:14.022Z,27.80
2023-05-05T02:40:30.080Z,25.50
2023-05-05T02:44:31.063Z,19.50
2023-05-05T02:48:29.121Z,25.60
2023-05-05T02:52:27.037Z,29.10
2023-05-05T02:56:37.018Z,25.50
2023-05-05T03:00:56.061Z,24.10
2023-05-05T03:04:57.011Z,24.30
2023-05-05T03:09:11.034Z,23.40
2023-05-05T03:13:00.908Z,26.60
2023-05-05T03:16:33.735Z,28.10
2023-05-05T03:19:58.404Z,29.10
2023-05-05T03:23:23.008Z,22.60
2023-05-05T03:26:51.260Z,26.40
2023-05-05T03:30:20.275Z,24.00
2023-05-05T03:33:46.302Z,25.70
2023-05-05T03:37:10.482Z,24.00
2023-05-05T03:40:43.788Z,27.60
2023-05-05T03:44:09.745Z,26.40
2023-05-05T03:47:34.255Z,29.60
2023-05-05T03:50:58.260Z,30.60
2023-05-05T03:54:22.577Z,30.30
2023-05-05T03:57:46.689Z,24.80
2023-05-05T04:01:10.523Z,25.40
2023-05-05T04:04:34.569Z,25.70
2023-05-05T04:07:58.780Z,25.30
2023-05-05T04:11:22.750Z,24.80
2023-05-05T04:14:46.929Z,27.50
2023-05-05T04:18:11.082Z,32.80
2023-05-05T04:21:36.249Z,25.70
2023-05-05T04:25:01.365Z,24.20
2023-05-05T04:28:26.253Z,20.40
2023-05-05T04:31:50.743Z,19.60
2023-05-05T04:35:14.685Z,19.20
2023-05-05T04:38:39.702Z,18.40
2023-05-05T04:42:03.766Z,19.80
2023-05-05T04:45:27.723Z,19.30
2023-05-05T04:48:51.942Z,18.80
2023-05-05T04:52:15.856Z,16.30
2023-05-05T04:55:42.979Z,17.90
2023-05-05T04:59:07.658Z,19.90
2023-05-05T05:02:32.749Z,16.10
2023-05-05T05:05:56.687Z,17.70
2023-05-05T05:09:20.639Z,24.50
2023-05-05T05:12:44.552Z,17.10
2023-05-05T05:16:08.754Z,15.80
2023-05-05T05:19:32.701Z,19.50
2023-05-05T05:22:57.455Z,17.60
2023-05-05T05:26:22.232Z,15.60
2023-05-05T05:29:46.710Z,15.30
2023-05-05T05:33:10.924Z,17.30
2023-05-05T05:36:35.348Z,13.90
2023-05-05T05:39:59.942Z,13.10
2023-05-05T05:43:26.195Z,16.00
2023-05-05T05:46:50.376Z,15.50
2023-05-05T05:50:14.709Z,15.20
2023-05-05T05:53:39.128Z,13.40
2023-05-05T05:57:04.382Z,13.00
2023-05-05T06:00:28.454Z,14.50
2023-05-05T06:03:56.288Z,15.60
2023-05-05T06:07:20.794Z,15.20
2023-05-05T06:10:47.126Z,10.10
2023-05-05T06:14:24.707Z,13.70
2023-05-05T06:20:50.926Z,14.00
2023-05-05T06:24:15.033Z,13.20
2023-05-05T06:27:39.035Z,11.90
2023-05-05T06:31:02.802Z,13.20
2023-05-05T06:34:27.063Z,11.90
2023-05-05T06:37:50.817Z,7.80
2023-05-05T06:41:14.754Z,11.40
2023-05-05T06:44:38.794Z,10.40
2023-05-05T06:48:02.804Z,10.80
2023-05-05T06:51:27.768Z,8.50
2023-05-05T06:54:51.589Z,10.30
2023-05-05T06:58:15.332Z,9.50
2023-05-05T07:01:39.295Z,10.80
2023-05-05T07:05:03.205Z,10.10
2023-05-05T07:08:27.052Z,10.00
2023-05-05T07:11:50.948Z,7.70
2023-05-05T07:15:26.835Z,9.80
2023-05-05T07:18:52.347Z,9.70
2023-05-05T07:22:16.152Z,8.80
2023-05-05T07:25:40.215Z,11.30
2023-05-05T07:29:04.582Z,6.90
2023-05-05T07:32:28.841Z,8.30
2023-05-05T07:35:52.672Z,5.00
2023-05-05T07:39:16.512Z,4.50
2023-05-05T07:42:40.407Z,4.80
2023-05-05T07:46:04.694Z,5.20
2023-05-05T07:49:28.670Z,4.60
2023-05-05T07:56:18.399Z,4.00
2023-05-05T08:03:11.334Z,3.80
2023-05-05T08:06:36.206Z,4.60
2023-05-05T08:10:00.038Z,5.10
2023-05-05T08:13:23.880Z,7.80
2023-05-05T08:16:47.750Z,6.40
2023-05-05T08:20:11.868Z,9.00
2023-05-05T08:23:36.732Z,5.00
2023-05-05T08:27:00.810Z,5.50
2023-05-05T08:30:24.617Z,4.10
2023-05-05T08:33:48.494Z,6.20
2023-05-05T08:37:12.402Z,4.80
2023-05-05T08:40:39.281Z,4.40
2023-05-05T08:44:03.416Z,4.70
2023-05-05T08:47:27.684Z,4.70
2023-05-05T08:51:00.362Z,4.20
2023-05-05T08:54:31.254Z,5.80
2023-05-05T08:58:01.249Z,5.50
2023-05-05T09:01:25.090Z,5.40
2023-05-05T09:04:48.952Z,7.50
2023-05-05T09:08:13.013Z,6.10
2023-05-05T09:11:38.596Z,6.30
2023-05-05T09:15:03.672Z,6.50
2023-05-05T09:18:28.054Z,6.10
2023-05-05T09:21:52.090Z,4.30
2023-05-05T09:25:18.138Z,9.20
2023-05-05T09:28:52.833Z,6.60
2023-05-05T09:32:19.335Z,5.30
2023-05-05T09:35:54.126Z,6.40
2023-05-05T09:39:19.934Z,5.80
2023-05-05T09:42:44.718Z,8.40
2023-05-05T09:46:09.624Z,10.30
2023-05-05T09:49:33.612Z,5.80
2023-05-05T09:53:01.707Z,4.60
2023-05-05T09:56:38.687Z,6.00
2023-05-05T10:00:04.563Z,6.60
2023-05-05T10:03:29.674Z,6.00
2023-05-05T10:06:53.758Z,4.00
2023-05-05T10:10:19.304Z,4.00
2023-05-05T10:13:43.619Z,4.70
2023-05-05T10:17:10.150Z,7.70
2023-05-05T10:20:34.528Z,4.90
2023-05-05T10:24:18.258Z,4.40
2023-05-05T10:27:48.578Z,6.20
2023-05-05T10:31:40.933Z,4.60
2023-05-05T10:35:09.845Z,9.20
2023-05-05T10:38:34.517Z,7.00
2023-05-05T10:42:02.964Z,4.00
2023-05-05T10:45:27.617Z,5.40
2023-05-05T10:49:11.752Z,6.90
2023-05-05T10:52:55.776Z,13.60
2023-05-05T10:56:27.429Z,8.00
2023-05-05T10:59:51.451Z,10.30
2023-05-05T11:03:18.374Z,7.20
2023-05-05T11:06:42.213Z,8.60
2023-05-05T11:10:08.653Z,8.20
2023-05-05T11:13:32.767Z,4.10
2023-05-05T11:16:56.760Z,6.00
2023-05-05T11:20:39.886Z,6.40
2023-05-05T11:24:28.212Z,9.40
2023-05-05T11:28:18.555Z,5.10
2023-05-05T11:31:42.411Z,12.90
2023-05-05T11:35:07.313Z,12.70
2023-05-05T11:38:37.363Z,11.70
2023-05-05T11:42:30.519Z,6.70
2023-05-05T11:46:17.499Z,6.30
2023-05-05T11:49:41.423Z,4.50
2023-05-05T11:53:05.731Z,28.10
2023-05-05T11:56:29.503Z,6.20
2023-05-05T11:59:58.926Z,5.80
2023-05-05T12:03:23.079Z,6.00
2023-05-05T12:06:49.028Z,4.30
2023-05-05T12:10:13.453Z,5.90
2023-05-05T12:13:37.279Z,9.50
2023-05-05T12:17:10.285Z,4.50
2023-05-05T12:20:35.173Z,6.80
2023-05-05T12:23:59.715Z,5.70
2023-05-05T12:27:24.115Z,6.70
2023-05-05T12:31:00.258Z,11.40
2023-05-05T12:34:25.064Z,6.10
2023-05-05T12:37:48.792Z,4.10
2023-05-05T12:41:19.067Z,5.10
2023-05-05T12:44:44.398Z,4.90
2023-05-05T12:51:57.583Z,8.30
2023-05-05T12:55:21.539Z,7.90
2023-05-05T12:58:49.433Z,6.80
2023-05-05T13:02:13.254Z,4.40
2023-05-05T13:05:37.400Z,4.30
2023-05-05T13:09:01.207Z,4.70
2023-05-05T13:12:26.019Z,5.90
2023-05-05T13:15:49.929Z,5.20
2023-05-05T13:19:14.013Z,5.60
2023-05-05T13:22:38.127Z,6.00
2023-05-05T13:26:01.952Z,8.10
2023-05-05T13:29:30.403Z,7.20
2023-05-05T13:33:15.383Z,6.30
2023-05-05T13:37:13.380Z,6.90
2023-05-05T13:41:12.338Z,4.20
2023-05-05T13:45:10.601Z,7.20
2023-05-05T13:49:08.345Z,4.60
2023-05-05T13:53:06.387Z,5.40
2023-05-05T13:57:04.325Z,9.90
2023-05-05T14:01:02.373Z,9.50
2023-05-05T14:05:00.375Z,6.80
2023-05-05T14:08:58.345Z,5.80
2023-05-05T14:12:56.421Z,6.30
2023-05-05T14:16:54.350Z,4.50
2023-05-05T14:20:52.300Z,8.10
2023-05-05T14:24:52.383Z,8.20
2023-05-05T14:28:50.329Z,4.70
2023-05-05T14:32:48.399Z,6.50
2023-05-05T14:36:46.297Z,6.00
2023-05-05T14:40:44.353Z,5.80
2023-05-05T14:44:42.281Z,4.90
2023-05-05T14:48:40.342Z,11.80
2023-05-05T14:52:38.311Z,6.20
2023-05-05T14:56:36.294Z,8.80
2023-05-05T15:00:34.297Z,8.90
2023-05-05T15:04:32.324Z,6.70
2023-05-05T15:08:30.320Z,4.10
2023-05-05T15:12:28.354Z,10.70
2023-05-05T15:16:26.456Z,7.10
2023-05-05T15:20:24.377Z,8.10
2023-05-05T15:24:22.263Z,4.60
2023-05-05T15:28:20.297Z,9.40
2023-05-05T15:32:18.334Z,8.80
2023-05-05T15:36:16.352Z,7.20
2023-05-05T15:40:14.239Z,4.00
2023-05-05T15:44:12.299Z,6.10
2023-05-05T15:48:10.271Z,5.40
2023-05-05T15:52:08.218Z,4.50
2023-05-05T15:56:06.216Z,6.10
2023-05-05T16:00:08.254Z,7.20
2023-05-05T16:04:06.227Z,5.00
2023-05-05T16:08:04.264Z,5.90
2023-05-05T16:12:02.213Z,8.00
2023-05-05T16:16:00.211Z,4.10
2023-05-05T16:19:58.224Z,4.50
2023-05-05T16:23:56.206Z,6.30
2023-05-05T16:27:54.167Z,5.80
2023-05-05T16:32:25.256Z,7.90
2023-05-05T16:36:27.173Z,8.00
2023-05-05T16:40:25.215Z,11.80
2023-05-05T16:44:23.388Z,7.40
2023-05-05T16:48:21.204Z,13.90
2023-05-05T16:52:19.171Z,9.00
2023-05-05T16:56:17.250Z,6.90
2023-05-05T17:00:16.121Z,5.70
2023-05-05T17:04:14.165Z,9.20
2023-05-05T17:08:12.187Z,9.60
2023-05-05T17:12:11.349Z,8.10
2023-05-05T17:16:09.241Z,8.50
2023-05-05T17:20:07.115Z,7.00
2023-05-05T17:24:05.117Z,8.00
2023-05-05T17:28:03.201Z,8.00
2023-05-05T17:32:01.134Z,10.20
2023-05-05T17:35:59.166Z,8.80
2023-05-05T17:39:57.160Z,10.30
2023-05-05T17:43:55.186Z,7.30
2023-05-05T17:47:53.127Z,10.00
2023-05-05T17:51:51.130Z,7.30
2023-05-05T17:55:49.144Z,9.10
2023-05-05T17:59:47.136Z,6.50
2023-05-05T18:03:45.082Z,8.10
2023-05-05T18:07:43.110Z,8.90
2023-05-05T18:11:41.093Z,7.30
2023-05-05T18:15:39.134Z,6.70
2023-05-05T18:19:38.114Z,5.30
2023-05-05T18:23:36.123Z,6.90
2023-05-05T18:27:34.088Z,9.50
2023-05-05T18:31:32.146Z,5.80
2023-05-05T18:35:34.065Z,7.20
2023-05-05T18:39:32.101Z,8.70
2023-05-05T18:43:30.127Z,12.30
2023-05-05T18:47:28.198Z,9.70
2023-05-05T18:51:26.078Z,6.70
2023-05-05T18:55:24.069Z,9.20
2023-05-05T18:59:22.052Z,7.10
2023-05-05T19:03:20.053Z,6.30
2023-05-05T19:07:33.717Z,8.10
2023-05-05T19:11:33.061Z,5.10
2023-05-05T19:15:31.037Z,11.00
2023-05-05T19:19:29.046Z,10.30
2023-05-05T19:23:26.986Z,7.50
2023-05-05T19:27:25.047Z,10.60
2023-05-05T19:31:23.102Z,19.70
2023-05-05T19:35:21.001Z,8.70
2023-05-05T19:39:18.971Z,4.70
2023-05-05T19:43:17.031Z,7.70
2023-05-05T19:47:15.013Z,9.00
2023-05-05T19:51:13.056Z,11.10
2023-05-05T19:55:10.988Z,9.30
2023-05-05T19:59:14.081Z,7.90
2023-05-05T20:03:11.997Z,9.00
2023-05-05T20:07:09.949Z,8.50
2023-05-05T20:11:07.957Z,10.10
2023-05-05T20:15:05.943Z,6.80
2023-05-05T20:19:03.951Z,7.20
2023-05-05T20:23:02.969Z,8.30
2023-05-05T20:27:00.886Z,7.40
2023-05-05T20:30:59.011Z,7.50
2023-05-05T20:34:56.944Z,9.20
2023-05-05T20:38:58.947Z,9.30
2023-05-05T20:42:56.928Z,8.70
2023-05-05T20:46:54.938Z,8.10
2023-05-05T20:50:53.891Z,12.50
2023-05-05T20:54:51.952Z,10.40
2023-05-05T20:58:49.882Z,13.00
2023-05-05T21:02:48.085Z,8.00
2023-05-05T21:06:46.890Z,10.70
2023-05-05T21:10:44.930Z,8.90
2023-05-05T21:14:42.871Z,9.80
2023-05-05T21:18:40.888Z,11.00
2023-05-05T21:22:38.893Z,8.80
2023-05-05T21:26:36.842Z,8.70
2023-05-05T21:30:34.852Z,11.20
2023-05-05T21:34:32.933Z,10.60
2023-05-05T21:38:30.850Z,14.40
2023-05-05T21:42:28.874Z,10.80
2023-05-05T21:46:26.885Z,9.20
2023-05-05T21:50:24.874Z,8.20
2023-05-05T21:54:22.846Z,8.10
2023-05-05T21:58:52.903Z,10.00
2023-05-05T22:02:50.931Z,7.10
2023-05-05T22:06:48.846Z,8.80
2023-05-05T22:10:46.806Z,11.30
2023-05-05T22:14:44.814Z,8.30
2023-05-05T22:18:42.820Z,8.60
2023-05-05T22:22:40.883Z,12.40
2023-05-05T22:26:38.818Z,9.00
2023-05-05T22:30:36.784Z,15.70
2023-05-05T22:34:34.862Z,11.80
2023-05-05T22:38:32.777Z,9.20
2023-05-05T22:42:30.766Z,11.70
2023-05-05T22:46:28.827Z,9.90
2023-05-05T22:50:26.857Z,9.10
2023-05-05T22:54:24.773Z,7.60
2023-05-05T22:58:22.772Z,8.70
2023-05-05T23:02:20.906Z,7.70
2023-05-05T23:06:18.762Z,6.50
2023-05-05T23:10:16.754Z,8.90
2023-05-05T23:14:14.791Z,9.70
2023-05-05T23:18:12.772Z,8.40
2023-05-05T23:22:10.744Z,7.90
2023-05-05T23:26:08.728Z,7.00
2023-05-05T23:30:06.759Z,8.50
2023-05-05T23:34:04.747Z,6.10
2023-05-05T23:38:02.705Z,11.20
2023-05-05T23:42:00.724Z,5.40
2023-05-05T23:45:58.719Z,6.10
2023-05-05T23:49:56.701Z,6.00
2023-05-05T23:53:54.673Z,6.90
2023-05-05T23:57:52.710Z,6.00
